sensor_id;sensor_type;location;lat;lon;timestamp;temperature;humidity
11454;DHT22;5783;55.174;61.310;2023-03-17T00:00:49;19.90;25.80
11454;DHT22;5783;55.174;61.310;2023-03-17T00:08:59;19.90;25.90
11454;DHT22;5783;55.174;61.310;2023-03-17T00:11:28;19.90;26.00
11454;DHT22;5783;55.174;61.310;2023-03-17T00:13:57;19.90;25.80
11454;DHT22;5783;55.174;61.310;2023-03-17T00:16:28;19.90;25.90
11454;DHT22;5783;55.174;61.310;2023-03-17T00:19:00;19.90;26.00
11454;DHT22;5783;55.174;61.310;2023-03-17T00:21:31;19.90;25.90
11454;DHT22;5783;55.174;61.310;2023-03-17T00:24:01;19.80;25.70
11454;DHT22;5783;55.174;61.310;2023-03-17T00:26:30;19.80;25.70
11454;DHT22;5783;55.174;61.310;2023-03-17T00:28:59;19.80;25.80
11454;DHT22;5783;55.174;61.310;2023-03-17T00:31:28;19.80;25.70
11454;DHT22;5783;55.174;61.310;2023-03-17T00:33:58;19.90;25.70
11454;DHT22;5783;55.174;61.310;2023-03-17T00:36:29;19.90;25.70
11454;DHT22;5783;55.174;61.310;2023-03-17T00:39:00;19.80;25.70
11454;DHT22;5783;55.174;61.310;2023-03-17T00:41:29;19.90;25.70
11454;DHT22;5783;55.174;61.310;2023-03-17T00:43:58;19.90;25.70
11454;DHT22;5783;55.174;61.310;2023-03-17T00:46:29;19.80;25.80
11454;DHT22;5783;55.174;61.310;2023-03-17T00:49:20;19.80;25.80
11454;DHT22;5783;55.174;61.310;2023-03-17T00:51:50;19.80;26.00
11454;DHT22;5783;55.174;61.310;2023-03-17T00:54:20;19.70;26.00
11454;DHT22;5783;55.174;61.310;2023-03-17T00:56:50;19.70;26.00
11454;DHT22;5783;55.174;61.310;2023-03-17T00:59:40;19.70;26.20
11454;DHT22;5783;55.174;61.310;2023-03-17T01:02:11;19.70;26.00
11454;DHT22;5783;55.174;61.310;2023-03-17T01:04:40;19.70;26.10
11454;DHT22;5783;55.174;61.310;2023-03-17T01:07:11;19.70;26.00
11454;DHT22;5783;55.174;61.310;2023-03-17T01:09:41;19.70;26.00
11454;DHT22;5783;55.174;61.310;2023-03-17T01:12:12;19.80;26.10
11454;DHT22;5783;55.174;61.310;2023-03-17T01:14:41;19.70;26.10
11454;DHT22;5783;55.174;61.310;2023-03-17T01:17:13;19.70;26.00
11454;DHT22;5783;55.174;61.310;2023-03-17T01:19:44;19.70;26.00
11454;DHT22;5783;55.174;61.310;2023-03-17T01:22:14;19.70;25.90
11454;DHT22;5783;55.174;61.310;2023-03-17T01:24:44;19.70;25.90
11454;DHT22;5783;55.174;61.310;2023-03-17T01:27:13;19.70;25.90
11454;DHT22;5783;55.174;61.310;2023-03-17T01:29:43;19.70;25.90
11454;DHT22;5783;55.174;61.310;2023-03-17T01:32:12;19.70;26.00
11454;DHT22;5783;55.174;61.310;2023-03-17T01:34:41;19.60;25.90
11454;DHT22;5783;55.174;61.310;2023-03-17T01:37:11;19.60;25.90
11454;DHT22;5783;55.174;61.310;2023-03-17T01:39:40;19.60;25.80
11454;DHT22;5783;55.174;61.310;2023-03-17T01:42:10;19.70;25.70
11454;DHT22;5783;55.174;61.310;2023-03-17T01:44:59;19.70;25.80
11454;DHT22;5783;55.174;61.310;2023-03-17T01:47:29;19.70;25.70
11454;DHT22;5783;55.174;61.310;2023-03-17T01:52:49;19.70;25.90
11454;DHT22;5783;55.174;61.310;2023-03-17T01:55:19;19.70;25.90
11454;DHT22;5783;55.174;61.310;2023-03-17T01:58:08;19.70;25.90
11454;DHT22;5783;55.174;61.310;2023-03-17T02:00:39;19.70;26.00
11454;DHT22;5783;55.174;61.310;2023-03-17T02:03:09;19.70;26.00
11454;DHT22;5783;55.174;61.310;2023-03-17T02:05:39;19.70;26.00
11454;DHT22;5783;55.174;61.310;2023-03-17T02:08:11;19.80;26.10
11454;DHT22;5783;55.174;61.310;2023-03-17T02:10:41;19.70;26.10
11454;DHT22;5783;55.174;61.310;2023-03-17T02:13:12;19.70;26.20
11454;DHT22;5783;55.174;61.310;2023-03-17T02:15:45;19.70;26.20
11454;DHT22;5783;55.174;61.310;2023-03-17T02:18:18;19.70;26.00
11454;DHT22;5783;55.174;61.310;2023-03-17T02:23:21;19.70;26.20
11454;DHT22;5783;55.174;61.310;2023-03-17T02:25:53;19.70;25.50
11454;DHT22;5783;55.174;61.310;2023-03-17T02:28:42;19.70;25.90
11454;DHT22;5783;55.174;61.310;2023-03-17T02:31:11;19.70;25.80
11454;DHT22;5783;55.174;61.310;2023-03-17T02:33:40;19.70;25.90
11454;DHT22;5783;55.174;61.310;2023-03-17T02:36:10;19.60;25.90
11454;DHT22;5783;55.174;61.310;2023-03-17T02:38:39;19.60;25.80
11454;DHT22;5783;55.174;61.310;2023-03-17T02:41:08;19.70;25.90
11454;DHT22;5783;55.174;61.310;2023-03-17T02:43:37;19.70;25.90
11454;DHT22;5783;55.174;61.310;2023-03-17T02:46:07;19.70;25.80
11454;DHT22;5783;55.174;61.310;2023-03-17T02:48:36;19.70;25.80
11454;DHT22;5783;55.174;61.310;2023-03-17T02:51:06;19.70;25.80
11454;DHT22;5783;55.174;61.310;2023-03-17T02:53:35;19.70;25.90
11454;DHT22;5783;55.174;61.310;2023-03-17T02:56:05;19.70;26.10
11454;DHT22;5783;55.174;61.310;2023-03-17T02:58:35;19.70;25.90
11454;DHT22;5783;55.174;61.310;2023-03-17T03:01:04;19.80;26.00
11454;DHT22;5783;55.174;61.310;2023-03-17T03:03:36;19.80;26.10
11454;DHT22;5783;55.174;61.310;2023-03-17T03:06:05;19.80;26.10
11454;DHT22;5783;55.174;61.310;2023-03-17T03:08:34;19.80;26.10
11454;DHT22;5783;55.174;61.310;2023-03-17T03:11:04;19.80;26.20
11454;DHT22;5783;55.174;61.310;2023-03-17T03:13:33;19.80;26.00
11454;DHT22;5783;55.174;61.310;2023-03-17T03:16:03;19.90;26.00
11454;DHT22;5783;55.174;61.310;2023-03-17T03:18:32;20.00;26.00
11454;DHT22;5783;55.174;61.310;2023-03-17T03:21:03;20.00;25.90
11454;DHT22;5783;55.174;61.310;2023-03-17T03:23:33;20.00;25.90
11454;DHT22;5783;55.174;61.310;2023-03-17T03:26:02;20.10;25.70
11454;DHT22;5783;55.174;61.310;2023-03-17T03:28:31;20.10;25.60
11454;DHT22;5783;55.174;61.310;2023-03-17T03:31:01;20.10;25.70
11454;DHT22;5783;55.174;61.310;2023-03-17T03:33:30;20.10;25.60
11454;DHT22;5783;55.174;61.310;2023-03-17T03:35:59;20.10;25.50
11454;DHT22;5783;55.174;61.310;2023-03-17T03:38:28;20.10;25.70
11454;DHT22;5783;55.174;61.310;2023-03-17T03:40:58;20.10;25.60
11454;DHT22;5783;55.174;61.310;2023-03-17T03:43:27;20.00;25.70
11454;DHT22;5783;55.174;61.310;2023-03-17T03:45:56;20.10;25.60
11454;DHT22;5783;55.174;61.310;2023-03-17T03:48:25;20.10;25.60
11454;DHT22;5783;55.174;61.310;2023-03-17T03:50:56;20.10;25.60
11454;DHT22;5783;55.174;61.310;2023-03-17T03:53:27;20.10;25.70
11454;DHT22;5783;55.174;61.310;2023-03-17T03:55:56;20.10;25.70
11454;DHT22;5783;55.174;61.310;2023-03-17T03:58:26;20.10;25.70
11454;DHT22;5783;55.174;61.310;2023-03-17T04:00:55;20.10;25.70
11454;DHT22;5783;55.174;61.310;2023-03-17T04:03:24;20.20;25.90
11454;DHT22;5783;55.174;61.310;2023-03-17T04:05:54;20.10;25.90
11454;DHT22;5783;55.174;61.310;2023-03-17T04:08:23;20.10;25.90
11454;DHT22;5783;55.174;61.310;2023-03-17T04:10:52;20.20;26.00
11454;DHT22;5783;55.174;61.310;2023-03-17T04:13:22;20.20;25.90
11454;DHT22;5783;55.174;61.310;2023-03-17T04:15:51;20.20;25.90
11454;DHT22;5783;55.174;61.310;2023-03-17T04:18:20;20.20;26.00
11454;DHT22;5783;55.174;61.310;2023-03-17T04:20:49;20.20;25.80
11454;DHT22;5783;55.174;61.310;2023-03-17T04:23:18;20.20;25.70
11454;DHT22;5783;55.174;61.310;2023-03-17T04:25:49;20.30;25.70
11454;DHT22;5783;55.174;61.310;2023-03-17T04:28:19;20.30;25.60
11454;DHT22;5783;55.174;61.310;2023-03-17T04:30:48;20.30;25.70
11454;DHT22;5783;55.174;61.310;2023-03-17T04:33:17;20.30;25.80
11454;DHT22;5783;55.174;61.310;2023-03-17T04:35:47;20.30;25.80
11454;DHT22;5783;55.174;61.310;2023-03-17T04:38:16;20.40;25.20
11454;DHT22;5783;55.174;61.310;2023-03-17T04:40:45;20.50;24.70
11454;DHT22;5783;55.174;61.310;2023-03-17T04:43:14;20.60;24.30
11454;DHT22;5783;55.174;61.310;2023-03-17T04:45:43;20.60;23.90
11454;DHT22;5783;55.174;61.310;2023-03-17T04:48:12;20.60;23.90
11454;DHT22;5783;55.174;61.310;2023-03-17T04:50:42;20.60;24.10
11454;DHT22;5783;55.174;61.310;2023-03-17T04:53:13;20.60;24.20
11454;DHT22;5783;55.174;61.310;2023-03-17T04:55:42;20.70;24.30
11454;DHT22;5783;55.174;61.310;2023-03-17T04:58:12;20.80;24.30
11454;DHT22;5783;55.174;61.310;2023-03-17T05:00:42;20.90;24.10
11454;DHT22;5783;55.174;61.310;2023-03-17T05:03:11;21.00;24.30
11454;DHT22;5783;55.174;61.310;2023-03-17T05:05:40;21.10;23.90
11454;DHT22;5783;55.174;61.310;2023-03-17T05:08:09;21.20;23.40
11454;DHT22;5783;55.174;61.310;2023-03-17T05:10:38;21.40;23.30
11454;DHT22;5783;55.174;61.310;2023-03-17T05:13:07;21.50;23.10
11454;DHT22;5783;55.174;61.310;2023-03-17T05:15:36;21.60;23.00
11454;DHT22;5783;55.174;61.310;2023-03-17T05:18:06;21.70;22.70
11454;DHT22;5783;55.174;61.310;2023-03-17T05:20:35;21.70;22.50
11454;DHT22;5783;55.174;61.310;2023-03-17T05:23:04;21.70;22.60
11454;DHT22;5783;55.174;61.310;2023-03-17T05:25:33;21.80;23.30
11454;DHT22;5783;55.174;61.310;2023-03-17T05:28:02;21.80;22.80
11454;DHT22;5783;55.174;61.310;2023-03-17T05:30:33;21.80;22.60
11454;DHT22;5783;55.174;61.310;2023-03-17T05:33:02;21.90;22.60
11454;DHT22;5783;55.174;61.310;2023-03-17T05:35:32;22.00;22.40
11454;DHT22;5783;55.174;61.310;2023-03-17T05:38:01;22.00;22.30
11454;DHT22;5783;55.174;61.310;2023-03-17T05:40:30;22.00;22.20
11454;DHT22;5783;55.174;61.310;2023-03-17T05:42:59;22.10;22.20
11454;DHT22;5783;55.174;61.310;2023-03-17T05:45:29;22.10;22.20
11454;DHT22;5783;55.174;61.310;2023-03-17T05:47:58;22.20;22.70
11454;DHT22;5783;55.174;61.310;2023-03-17T05:50:28;22.30;22.40
11454;DHT22;5783;55.174;61.310;2023-03-17T05:52:58;22.30;22.70
11454;DHT22;5783;55.174;61.310;2023-03-17T05:55:27;22.20;22.40
11454;DHT22;5783;55.174;61.310;2023-03-17T05:57:56;22.20;22.40
11454;DHT22;5783;55.174;61.310;2023-03-17T06:00:26;22.10;22.30
11454;DHT22;5783;55.174;61.310;2023-03-17T06:02:55;22.10;22.20
11454;DHT22;5783;55.174;61.310;2023-03-17T06:05:24;22.00;22.00
11454;DHT22;5783;55.174;61.310;2023-03-17T06:07:54;22.00;22.10
11454;DHT22;5783;55.174;61.310;2023-03-17T06:10:23;22.00;22.00
11454;DHT22;5783;55.174;61.310;2023-03-17T06:12:52;22.00;22.10
11454;DHT22;5783;55.174;61.310;2023-03-17T06:15:22;22.00;21.90
11454;DHT22;5783;55.174;61.310;2023-03-17T06:17:51;22.10;21.90
11454;DHT22;5783;55.174;61.310;2023-03-17T06:20:21;22.00;21.80
11454;DHT22;5783;55.174;61.310;2023-03-17T06:22:50;22.00;22.00
11454;DHT22;5783;55.174;61.310;2023-03-17T06:25:19;22.00;22.10
11454;DHT22;5783;55.174;61.310;2023-03-17T06:27:48;22.00;22.20
11454;DHT22;5783;55.174;61.310;2023-03-17T06:30:19;22.00;22.40
11454;DHT22;5783;55.174;61.310;2023-03-17T06:32:48;22.00;22.50
11454;DHT22;5783;55.174;61.310;2023-03-17T06:35:17;22.10;22.60
11454;DHT22;5783;55.174;61.310;2023-03-17T06:37:48;22.20;22.20
11454;DHT22;5783;55.174;61.310;2023-03-17T06:40:17;22.30;22.00
11454;DHT22;5783;55.174;61.310;2023-03-17T06:42:46;22.30;22.00
11454;DHT22;5783;55.174;61.310;2023-03-17T06:45:15;22.40;23.00
11454;DHT22;5783;55.174;61.310;2023-03-17T06:47:44;22.50;22.70
11454;DHT22;5783;55.174;61.310;2023-03-17T06:50:13;22.50;22.60
11454;DHT22;5783;55.174;61.310;2023-03-17T06:52:43;22.50;22.30
11454;DHT22;5783;55.174;61.310;2023-03-17T06:55:12;22.50;21.90
11454;DHT22;5783;55.174;61.310;2023-03-17T06:57:43;22.50;21.90
11454;DHT22;5783;55.174;61.310;2023-03-17T07:00:13;22.50;21.70
11454;DHT22;5783;55.174;61.310;2023-03-17T07:02:42;22.60;21.90
11454;DHT22;5783;55.174;61.310;2023-03-17T07:05:11;22.60;21.70
11454;DHT22;5783;55.174;61.310;2023-03-17T07:07:41;22.60;22.00
11454;DHT22;5783;55.174;61.310;2023-03-17T07:10:10;22.70;22.30
11454;DHT22;5783;55.174;61.310;2023-03-17T07:12:41;22.70;22.50
11454;DHT22;5783;55.174;61.310;2023-03-17T07:15:10;22.70;22.30
11454;DHT22;5783;55.174;61.310;2023-03-17T07:17:40;22.70;22.50
11454;DHT22;5783;55.174;61.310;2023-03-17T07:20:10;22.70;22.30
11454;DHT22;5783;55.174;61.310;2023-03-17T07:22:40;22.80;22.10
11454;DHT22;5783;55.174;61.310;2023-03-17T07:25:09;22.70;21.90
11454;DHT22;5783;55.174;61.310;2023-03-17T07:27:41;22.70;22.10
11454;DHT22;5783;55.174;61.310;2023-03-17T07:30:12;22.70;22.30
11454;DHT22;5783;55.174;61.310;2023-03-17T07:32:43;22.80;22.30
11454;DHT22;5783;55.174;61.310;2023-03-17T07:35:13;23.00;22.00
11454;DHT22;5783;55.174;61.310;2023-03-17T07:37:43;23.00;22.40
11454;DHT22;5783;55.174;61.310;2023-03-17T07:40:13;23.10;22.00
11454;DHT22;5783;55.174;61.310;2023-03-17T07:42:44;23.10;21.50
11454;DHT22;5783;55.174;61.310;2023-03-17T07:45:13;23.20;21.40
11454;DHT22;5783;55.174;61.310;2023-03-17T07:47:42;23.30;20.70
11454;DHT22;5783;55.174;61.310;2023-03-17T07:50:12;23.10;55.10
11454;DHT22;5783;55.174;61.310;2023-03-17T07:52:41;23.10;53.30
11454;DHT22;5783;55.174;61.310;2023-03-17T07:55:11;23.10;56.20
11454;DHT22;5783;55.174;61.310;2023-03-17T07:57:40;23.10;59.10
11454;DHT22;5783;55.174;61.310;2023-03-17T08:00:10;22.90;58.10
11454;DHT22;5783;55.174;61.310;2023-03-17T08:05:10;23.30;34.60
11454;DHT22;5783;55.174;61.310;2023-03-17T08:07:40;23.10;32.30
11454;DHT22;5783;55.174;61.310;2023-03-17T08:10:10;23.00;32.20
11454;DHT22;5783;55.174;61.310;2023-03-17T08:12:40;23.10;31.90
11454;DHT22;5783;55.174;61.310;2023-03-17T08:15:10;23.40;19.30
11454;DHT22;5783;55.174;61.310;2023-03-17T08:20:10;23.60;18.20
11454;DHT22;5783;55.174;61.310;2023-03-17T08:22:40;23.70;17.70
11454;DHT22;5783;55.174;61.310;2023-03-17T08:25:09;23.80;24.80
11454;DHT22;5783;55.174;61.310;2023-03-17T08:27:40;23.90;42.60
11454;DHT22;5783;55.174;61.310;2023-03-17T08:30:10;24.00;29.50
11454;DHT22;5783;55.174;61.310;2023-03-17T08:32:39;24.10;18.60
11454;DHT22;5783;55.174;61.310;2023-03-17T08:35:28;24.10;18.30
11454;DHT22;5783;55.174;61.310;2023-03-17T08:37:57;24.10;18.10
11454;DHT22;5783;55.174;61.310;2023-03-17T08:40:26;24.10;17.90
11454;DHT22;5783;55.174;61.310;2023-03-17T08:42:56;24.10;17.00
11454;DHT22;5783;55.174;61.310;2023-03-17T08:45:25;24.00;17.40
11454;DHT22;5783;55.174;61.310;2023-03-17T08:47:54;24.00;17.40
11454;DHT22;5783;55.174;61.310;2023-03-17T08:50:25;23.90;17.40
11454;DHT22;5783;55.174;61.310;2023-03-17T08:52:55;23.90;17.70
11454;DHT22;5783;55.174;61.310;2023-03-17T08:55:24;23.90;18.00
11454;DHT22;5783;55.174;61.310;2023-03-17T08:57:54;23.90;18.20
11454;DHT22;5783;55.174;61.310;2023-03-17T09:00:23;23.90;18.50
11454;DHT22;5783;55.174;61.310;2023-03-17T09:02:52;23.90;18.90
11454;DHT22;5783;55.174;61.310;2023-03-17T09:05:22;23.90;19.00
11454;DHT22;5783;55.174;61.310;2023-03-17T09:07:52;23.90;18.90
11454;DHT22;5783;55.174;61.310;2023-03-17T09:10:21;23.90;19.00
11454;DHT22;5783;55.174;61.310;2023-03-17T09:12:51;23.90;18.90
11454;DHT22;5783;55.174;61.310;2023-03-17T09:15:20;23.90;18.90
11454;DHT22;5783;55.174;61.310;2023-03-17T09:17:49;23.90;19.30
11454;DHT22;5783;55.174;61.310;2023-03-17T09:20:18;23.90;19.50
11454;DHT22;5783;55.174;61.310;2023-03-17T09:22:47;23.90;19.60
11454;DHT22;5783;55.174;61.310;2023-03-17T09:25:17;23.90;19.90
11454;DHT22;5783;55.174;61.310;2023-03-17T09:27:46;23.90;20.10
11454;DHT22;5783;55.174;61.310;2023-03-17T09:30:15;23.90;20.40
11454;DHT22;5783;55.174;61.310;2023-03-17T09:32:44;23.90;20.50
11454;DHT22;5783;55.174;61.310;2023-03-17T09:35:15;23.90;20.60
11454;DHT22;5783;55.174;61.310;2023-03-17T09:37:46;23.90;20.70
11454;DHT22;5783;55.174;61.310;2023-03-17T09:40:18;23.90;20.70
11454;DHT22;5783;55.174;61.310;2023-03-17T09:43:10;23.90;20.50
11454;DHT22;5783;55.174;61.310;2023-03-17T09:45:40;23.90;20.40
11454;DHT22;5783;55.174;61.310;2023-03-17T09:51:18;23.90;20.40
11454;DHT22;5783;55.174;61.310;2023-03-17T09:56:40;23.80;20.60
11454;DHT22;5783;55.174;61.310;2023-03-17T10:00:04;23.80;20.80
11454;DHT22;5783;55.174;61.310;2023-03-17T10:02:01;23.80;20.70
11454;DHT22;5783;55.174;61.310;2023-03-17T10:04:30;23.80;20.90
11454;DHT22;5783;55.174;61.310;2023-03-17T10:16:30;23.80;21.40
11454;DHT22;5783;55.174;61.310;2023-03-17T10:19:00;23.80;21.20
11454;DHT22;5783;55.174;61.310;2023-03-17T10:21:32;23.80;21.30
11454;DHT22;5783;55.174;61.310;2023-03-17T10:24:04;23.80;21.50
11454;DHT22;5783;55.174;61.310;2023-03-17T10:26:53;23.80;21.30
11454;DHT22;5783;55.174;61.310;2023-03-17T10:29:24;23.80;21.60
11454;DHT22;5783;55.174;61.310;2023-03-17T10:31:54;23.90;21.50
11454;DHT22;5783;55.174;61.310;2023-03-17T10:34:43;23.90;22.90
11454;DHT22;5783;55.174;61.310;2023-03-17T10:37:16;23.90;22.90
11454;DHT22;5783;55.174;61.310;2023-03-17T10:45:29;24.00;21.40
11454;DHT22;5783;55.174;61.310;2023-03-17T10:48:00;24.00;21.40
11454;DHT22;5783;55.174;61.310;2023-03-17T10:50:32;24.10;21.50
11454;DHT22;5783;55.174;61.310;2023-03-17T10:53:22;24.10;21.50
11454;DHT22;5783;55.174;61.310;2023-03-17T11:02:33;24.10;21.70
11454;DHT22;5783;55.174;61.310;2023-03-17T11:05:03;24.10;21.60
11454;DHT22;5783;55.174;61.310;2023-03-17T11:08:09;24.20;21.70
11454;DHT22;5783;55.174;61.310;2023-03-17T11:10:27;24.20;21.70
11454;DHT22;5783;55.174;61.310;2023-03-17T11:13:17;24.20;21.70
11454;DHT22;5783;55.174;61.310;2023-03-17T11:18:38;24.20;21.50
11454;DHT22;5783;55.174;61.310;2023-03-17T11:25:09;24.20;21.90
11454;DHT22;5783;55.174;61.310;2023-03-17T11:33:28;24.20;24.90
11454;DHT22;5783;55.174;61.310;2023-03-17T11:50:31;24.20;23.20
11454;DHT22;5783;55.174;61.310;2023-03-17T11:53:22;24.20;21.80
11454;DHT22;5783;55.174;61.310;2023-03-17T12:10:59;24.20;22.20
11454;DHT22;5783;55.174;61.310;2023-03-17T12:22:41;24.20;22.40
11454;DHT22;5783;55.174;61.310;2023-03-17T12:34:56;24.10;22.90
11454;DHT22;5783;55.174;61.310;2023-03-17T12:37:27;24.10;23.80
11454;DHT22;5783;55.174;61.310;2023-03-17T12:40:18;24.10;22.20
11454;DHT22;5783;55.174;61.310;2023-03-17T12:46:19;24.10;21.40
11454;DHT22;5783;55.174;61.310;2023-03-17T12:58:20;24.00;21.00
11454;DHT22;5783;55.174;61.310;2023-03-17T13:01:06;24.00;21.10
11454;DHT22;5783;55.174;61.310;2023-03-17T13:03:36;23.90;22.30
11454;DHT22;5783;55.174;61.310;2023-03-17T13:06:13;23.90;21.20
11454;DHT22;5783;55.174;61.310;2023-03-17T13:08:40;23.90;21.10
11454;DHT22;5783;55.174;61.310;2023-03-17T13:17:29;23.80;23.30
11454;DHT22;5783;55.174;61.310;2023-03-17T13:28:20;23.70;22.00
11454;DHT22;5783;55.174;61.310;2023-03-17T13:31:07;23.60;21.40
11454;DHT22;5783;55.174;61.310;2023-03-17T13:34:00;23.60;22.60
11454;DHT22;5783;55.174;61.310;2023-03-17T13:36:50;23.50;21.50
11454;DHT22;5783;55.174;61.310;2023-03-17T13:46:11;23.20;22.00
11454;DHT22;5783;55.174;61.310;2023-03-17T13:48:45;23.00;22.20
11454;DHT22;5783;55.174;61.310;2023-03-17T13:57:20;22.80;22.60
11454;DHT22;5783;55.174;61.310;2023-03-17T13:59:32;22.70;22.80
11454;DHT22;5783;55.174;61.310;2023-03-17T14:02:10;22.60;23.00
11454;DHT22;5783;55.174;61.310;2023-03-17T14:07:26;22.50;23.40
11454;DHT22;5783;55.174;61.310;2023-03-17T14:13:11;22.40;23.50
11454;DHT22;5783;55.174;61.310;2023-03-17T14:18:31;22.20;28.10
11454;DHT22;5783;55.174;61.310;2023-03-17T14:21:03;22.10;24.10
11454;DHT22;5783;55.174;61.310;2023-03-17T14:27:22;22.00;25.10
11454;DHT22;5783;55.174;61.310;2023-03-17T14:29:52;22.00;25.60
11454;DHT22;5783;55.174;61.310;2023-03-17T14:32:22;21.90;24.80
11454;DHT22;5783;55.174;61.310;2023-03-17T14:35:12;21.80;24.70
11454;DHT22;5783;55.174;61.310;2023-03-17T14:37:41;21.80;24.80
11454;DHT22;5783;55.174;61.310;2023-03-17T14:40:30;21.70;24.40
11454;DHT22;5783;55.174;61.310;2023-03-17T14:43:01;21.60;24.20
11454;DHT22;5783;55.174;61.310;2023-03-17T14:45:51;21.60;52.30
11454;DHT22;5783;55.174;61.310;2023-03-17T14:48:41;21.60;42.30
11454;DHT22;5783;55.174;61.310;2023-03-17T14:54:22;21.50;25.80
11454;DHT22;5783;55.174;61.310;2023-03-17T14:57:13;21.40;25.40
11454;DHT22;5783;55.174;61.310;2023-03-17T14:59:42;21.30;25.20
11454;DHT22;5783;55.174;61.310;2023-03-17T15:02:33;21.30;25.20
11454;DHT22;5783;55.174;61.310;2023-03-17T15:11:04;21.40;25.90
11454;DHT22;5783;55.174;61.310;2023-03-17T15:14:27;21.40;25.90
11454;DHT22;5783;55.174;61.310;2023-03-17T15:16:27;21.40;25.90
11454;DHT22;5783;55.174;61.310;2023-03-17T15:21:47;21.30;26.20
11454;DHT22;5783;55.174;61.310;2023-03-17T15:27:26;21.30;26.40
11454;DHT22;5783;55.174;61.310;2023-03-17T15:29:55;21.30;26.40
11454;DHT22;5783;55.174;61.310;2023-03-17T15:32:25;21.30;26.20
11454;DHT22;5783;55.174;61.310;2023-03-17T15:34:56;21.40;26.30
11454;DHT22;5783;55.174;61.310;2023-03-17T15:40:00;21.50;26.10
11454;DHT22;5783;55.174;61.310;2023-03-17T15:42:33;21.50;25.90
11454;DHT22;5783;55.174;61.310;2023-03-17T15:45:05;21.50;25.70
11454;DHT22;5783;55.174;61.310;2023-03-17T15:47:35;21.60;25.80
11454;DHT22;5783;55.174;61.310;2023-03-17T15:53:15;21.50;25.80
11454;DHT22;5783;55.174;61.310;2023-03-17T15:55:44;21.50;26.10
11454;DHT22;5783;55.174;61.310;2023-03-17T15:58:14;21.50;26.10
11454;DHT22;5783;55.174;61.310;2023-03-17T16:00:45;21.50;26.10
11454;DHT22;5783;55.174;61.310;2023-03-17T16:03:34;21.50;26.30
11454;DHT22;5783;55.174;61.310;2023-03-17T16:06:06;21.50;26.30
11454;DHT22;5783;55.174;61.310;2023-03-17T16:08:35;21.50;26.30
11454;DHT22;5783;55.174;61.310;2023-03-17T16:11:04;21.50;26.40
11454;DHT22;5783;55.174;61.310;2023-03-17T16:13:35;21.50;26.40
11454;DHT22;5783;55.174;61.310;2023-03-17T16:16:04;21.50;26.20
11454;DHT22;5783;55.174;61.310;2023-03-17T16:18:35;21.50;26.40
11454;DHT22;5783;55.174;61.310;2023-03-17T16:21:05;21.50;26.10
11454;DHT22;5783;55.174;61.310;2023-03-17T16:23:35;21.60;26.20
11454;DHT22;5783;55.174;61.310;2023-03-17T16:26:24;21.60;26.20
11454;DHT22;5783;55.174;61.310;2023-03-17T16:28:53;21.60;26.10
11454;DHT22;5783;55.174;61.310;2023-03-17T16:31:43;21.60;26.10
11454;DHT22;5783;55.174;61.310;2023-03-17T16:34:34;21.60;26.10
11454;DHT22;5783;55.174;61.310;2023-03-17T16:37:03;21.60;25.90
11454;DHT22;5783;55.174;61.310;2023-03-17T16:39:32;21.60;26.00
11454;DHT22;5783;55.174;61.310;2023-03-17T16:42:01;21.60;26.00
11454;DHT22;5783;55.174;61.310;2023-03-17T16:44:32;21.70;26.00
11454;DHT22;5783;55.174;61.310;2023-03-17T16:47:01;21.70;26.10
11454;DHT22;5783;55.174;61.310;2023-03-17T16:49:30;21.70;26.20
11454;DHT22;5783;55.174;61.310;2023-03-17T16:51:59;21.70;26.20
11454;DHT22;5783;55.174;61.310;2023-03-17T16:54:28;21.80;26.20
11454;DHT22;5783;55.174;61.310;2023-03-17T16:57:00;21.70;26.10
11454;DHT22;5783;55.174;61.310;2023-03-17T16:59:29;21.70;26.20
11454;DHT22;5783;55.174;61.310;2023-03-17T17:02:00;21.70;26.20
11454;DHT22;5783;55.174;61.310;2023-03-17T17:04:30;21.60;26.40
11454;DHT22;5783;55.174;61.310;2023-03-17T17:07:00;21.60;26.60
11454;DHT22;5783;55.174;61.310;2023-03-17T17:09:30;21.50;26.70
11454;DHT22;5783;55.174;61.310;2023-03-17T17:11:59;21.50;26.80
11454;DHT22;5783;55.174;61.310;2023-03-17T17:14:28;21.50;26.80
11454;DHT22;5783;55.174;61.310;2023-03-17T17:16:57;21.40;26.90
11454;DHT22;5783;55.174;61.310;2023-03-17T17:19:26;21.40;27.00
11454;DHT22;5783;55.174;61.310;2023-03-17T17:21:55;21.30;27.00
11454;DHT22;5783;55.174;61.310;2023-03-17T17:24:25;21.30;27.00
11454;DHT22;5783;55.174;61.310;2023-03-17T17:26:54;21.30;27.10
11454;DHT22;5783;55.174;61.310;2023-03-17T17:29:24;21.30;27.00
11454;DHT22;5783;55.174;61.310;2023-03-17T17:31:53;21.30;27.10
11454;DHT22;5783;55.174;61.310;2023-03-17T17:34:22;21.20;27.20
11454;DHT22;5783;55.174;61.310;2023-03-17T17:36:51;21.20;27.20
11454;DHT22;5783;55.174;61.310;2023-03-17T17:39:22;21.10;27.20
11454;DHT22;5783;55.174;61.310;2023-03-17T17:41:52;21.10;27.20
11454;DHT22;5783;55.174;61.310;2023-03-17T17:44:21;21.10;27.20
11454;DHT22;5783;55.174;61.310;2023-03-17T17:46:50;21.20;27.20
11454;DHT22;5783;55.174;61.310;2023-03-17T17:49:19;21.20;27.20
11454;DHT22;5783;55.174;61.310;2023-03-17T17:52:08;21.20;27.30
11454;DHT22;5783;55.174;61.310;2023-03-17T17:55:17;21.20;27.20
11454;DHT22;5783;55.174;61.310;2023-03-17T17:58:27;21.20;27.30
11454;DHT22;5783;55.174;61.310;2023-03-17T18:00:56;21.10;27.40
11454;DHT22;5783;55.174;61.310;2023-03-17T18:06:18;21.10;27.40
11454;DHT22;5783;55.174;61.310;2023-03-17T18:08:48;21.10;27.50
11454;DHT22;5783;55.174;61.310;2023-03-17T18:11:18;21.00;27.50
11454;DHT22;5783;55.174;61.310;2023-03-17T18:13:47;21.00;27.60
11454;DHT22;5783;55.174;61.310;2023-03-17T18:16:17;21.00;27.60
11454;DHT22;5783;55.174;61.310;2023-03-17T18:18:47;21.00;27.60
11454;DHT22;5783;55.174;61.310;2023-03-17T18:21:17;21.00;27.60
11454;DHT22;5783;55.174;61.310;2023-03-17T18:23:46;21.00;27.60
11454;DHT22;5783;55.174;61.310;2023-03-17T18:26:17;21.00;27.60
11454;DHT22;5783;55.174;61.310;2023-03-17T18:29:07;21.00;27.70
11454;DHT22;5783;55.174;61.310;2023-03-17T18:34:31;20.90;27.60
11454;DHT22;5783;55.174;61.310;2023-03-17T18:37:01;21.00;27.60
11454;DHT22;5783;55.174;61.310;2023-03-17T18:39:32;20.90;27.60
11454;DHT22;5783;55.174;61.310;2023-03-17T18:42:02;21.00;27.70
11454;DHT22;5783;55.174;61.310;2023-03-17T18:44:31;21.00;27.70
11454;DHT22;5783;55.174;61.310;2023-03-17T18:47:00;21.00;27.70
11454;DHT22;5783;55.174;61.310;2023-03-17T18:49:30;21.00;27.70
11454;DHT22;5783;55.174;61.310;2023-03-17T18:51:59;20.90;27.70
11454;DHT22;5783;55.174;61.310;2023-03-17T18:54:28;20.90;27.90
11454;DHT22;5783;55.174;61.310;2023-03-17T18:56:57;20.90;27.80
11454;DHT22;5783;55.174;61.310;2023-03-17T18:59:26;20.90;27.80
11454;DHT22;5783;55.174;61.310;2023-03-17T19:01:55;20.90;27.80